Time;durP1;ratioP1;P1;durP2;ratioP2;P2;SDS_P1;SDS_P2;PMS_P1;PMS_P2;Temp;Humidity;BMP_temperature;BMP_pressure;BME280_temperature;BME280_humidity;BME280_pressure;Samples;Min_cycle;Max_cycle;Signal;HPM_P1;HPM_P2
2021/07/24 00:00:32;;;;;;;12.57;10.60;;;22.20;99.90;;;;;;6127652;23;20609;-64
2021/07/24 00:02:58;;;;;;;11.07;9.87;;;22.20;99.90;;;;;;6127146;23;20473;-68
2021/07/24 00:05:23;;;;;;;11.73;10.50;;;22.20;99.90;;;;;;6127073;23;20191;-69
2021/07/24 00:07:49;;;;;;;10.50;9.40;;;22.10;99.90;;;;;;6126889;23;20180;-64
2021/07/24 00:10:15;;;;;;;10.80;9.70;;;22.10;99.90;;;;;;6127588;23;20168;-68
2021/07/24 00:12:41;;;;;;;12.00;10.23;;;22.00;99.90;;;;;;6126999;23;20168;-69
2021/07/24 00:15:06;;;;;;;11.90;10.47;;;22.00;99.90;;;;;;6126738;23;20542;-69
2021/07/24 00:17:32;;;;;;;11.93;10.67;;;22.00;99.90;;;;;;6127013;23;20172;-64
2021/07/24 00:19:57;;;;;;;13.27;10.50;;;21.90;99.90;;;;;;6127255;23;20186;-64
2021/07/24 00:22:23;;;;;;;12.93;11.03;;;21.90;99.90;;;;;;6126906;23;20295;-66
2021/07/24 00:24:49;;;;;;;11.90;10.67;;;21.80;99.90;;;;;;6126720;23;20270;-69
2021/07/24 00:27:14;;;;;;;13.73;12.20;;;21.80;99.90;;;;;;6125279;23;20180;-64
2021/07/24 00:29:40;;;;;;;12.13;10.13;;;21.80;99.90;;;;;;6127351;23;20156;-64
2021/07/24 00:32:06;;;;;;;12.37;11.10;;;21.70;99.90;;;;;;6126794;23;20202;-69
2021/07/24 00:34:32;;;;;;;11.80;10.70;;;21.60;99.90;;;;;;6128924;23;20278;-64
2021/07/24 00:36:58;;;;;;;12.77;10.97;;;21.60;99.90;;;;;;6128574;23;20448;-69
2021/07/24 00:39:24;;;;;;;12.47;11.17;;;21.60;99.90;;;;;;6127102;23;20413;-64
2021/07/24 00:41:59;;;;;;;13.57;11.10;;;21.50;99.90;;;;;;6128697;23;20425;-69
2021/07/24 00:44:26;;;;;;;10.70;9.70;;;21.50;99.90;;;;;;6151908;23;20445;-64
2021/07/24 00:46:55;;;;;;;13.40;11.50;;;21.40;99.90;;;;;;6128553;23;20397;-64
2021/07/24 00:49:22;;;;;;;10.83;9.83;;;21.40;99.90;;;;;;6128574;23;20390;-64
2021/07/24 00:51:48;;;;;;;13.87;11.20;;;21.40;99.90;;;;;;6128617;23;20481;-65
2021/07/24 00:54:14;;;;;;;11.23;9.80;;;21.40;99.90;;;;;;6128881;23;20855;-69
2021/07/24 00:56:42;;;;;;;12.50;11.03;;;21.30;99.90;;;;;;6128583;23;20382;-69
2021/07/24 00:59:08;;;;;;;14.30;11.03;;;21.30;99.90;;;;;;6128792;23;20393;-69
2021/07/24 01:01:36;;;;;;;12.73;11.53;;;21.30;99.90;;;;;;6151504;23;20406;-64
2021/07/24 01:04:02;;;;;;;14.63;10.53;;;21.30;99.90;;;;;;6128635;23;20191;-69
2021/07/24 01:06:30;;;;;;;11.77;10.57;;;21.30;99.90;;;;;;6128384;23;20425;-68
2021/07/24 01:08:56;;;;;;;13.03;11.30;;;21.30;99.90;;;;;;6128760;23;20418;-69
2021/07/24 01:11:22;;;;;;;11.40;10.23;;;21.20;99.90;;;;;;6128353;23;20396;-64
2021/07/24 01:13:49;;;;;;;11.10;10.00;;;21.20;99.90;;;;;;6128598;23;20394;-64
2021/07/24 01:16:15;;;;;;;12.43;10.70;;;21.20;99.90;;;;;;6126769;23;20183;-69
2021/07/24 01:18:41;;;;;;;12.70;11.40;;;21.20;99.90;;;;;;6128495;23;20445;-64
2021/07/24 01:21:09;;;;;;;12.83;11.50;;;21.10;99.90;;;;;;6128121;23;20187;-64
2021/07/24 01:23:36;;;;;;;12.03;10.77;;;21.10;99.90;;;;;;6128421;23;20183;-68
2021/07/24 01:26:02;;;;;;;13.53;11.53;;;21.10;99.90;;;;;;6126675;23;20381;-69
2021/07/24 01:28:33;;;;;;;11.67;10.47;;;21.10;99.90;;;;;;6128393;23;20382;-64
2021/07/24 01:31:01;;;;;;;14.20;10.97;;;21.10;99.90;;;;;;6126651;23;20477;-69
2021/07/24 01:33:28;;;;;;;12.33;10.97;;;21.10;99.90;;;;;;6126814;23;20390;-64
2021/07/24 01:35:53;;;;;;;13.00;10.97;;;21.10;99.90;;;;;;6127997;23;20500;-69
2021/07/24 01:38:20;;;;;;;11.70;10.60;;;21.10;99.90;;;;;;6128103;23;20442;-66
2021/07/24 01:40:46;;;;;;;12.80;11.50;;;21.00;99.90;;;;;;6126709;23;20598;-68
2021/07/24 01:43:12;;;;;;;15.87;11.10;;;21.00;99.90;;;;;;6127778;23;20545;-69
2021/07/24 01:45:38;;;;;;;14.83;11.70;;;21.00;99.90;;;;;;6128006;23;20180;-64
2021/07/24 01:48:09;;;;;;;13.53;11.87;;;21.00;99.90;;;;;;6127953;23;20497;-64
2021/07/24 01:53:22;;;;;;;13.77;11.23;;;21.00;99.90;;;;;;6127953;23;20465;-64
2021/07/24 01:55:59;;;;;;;13.07;10.40;;;20.90;99.90;;;;;;6128040;23;20787;-64
2021/07/24 01:58:35;;;;;;;12.00;10.80;;;20.90;99.90;;;;;;6128388;23;20446;-69
2021/07/24 02:01:02;;;;;;;14.30;11.57;;;20.90;99.90;;;;;;6127879;23;20370;-69
2021/07/24 02:03:36;;;;;;;15.40;11.60;;;20.90;99.90;;;;;;6127947;23;20480;-64
2021/07/24 02:06:03;;;;;;;13.07;11.63;;;20.90;99.90;;;;;;6127822;23;20378;-64
2021/07/24 02:08:29;;;;;;;15.07;11.73;;;20.90;99.90;;;;;;6128028;23;20701;-69
2021/07/24 02:10:55;;;;;;;12.80;11.40;;;20.80;99.90;;;;;;6127969;23;20366;-68
2021/07/24 02:13:20;;;;;;;13.20;11.50;;;20.80;99.90;;;;;;6126272;23;20412;-64
2021/07/24 02:15:47;;;;;;;14.10;11.43;;;20.70;99.90;;;;;;6127939;23;20374;-69
2021/07/24 02:18:17;;;;;;;11.43;10.23;;;20.60;99.90;;;;;;6127747;23;20409;-69
2021/07/24 02:20:45;;;;;;;15.87;11.10;;;20.60;99.90;;;;;;6127790;23;20425;-64
2021/07/24 02:23:12;;;;;;;13.47;11.23;;;20.60;99.90;;;;;;6127696;23;20397;-64
2021/07/24 02:25:38;;;;;;;13.23;11.07;;;20.50;99.90;;;;;;6127701;23;20592;-69
2021/07/24 02:28:04;;;;;;;12.17;10.97;;;20.40;99.90;;;;;;6127476;23;20902;-69
2021/07/24 02:30:29;;;;;;;14.23;12.23;;;20.40;99.90;;;;;;6127936;23;20485;-67
2021/07/24 02:32:55;;;;;;;14.73;12.63;;;20.40;99.90;;;;;;6127594;23;20226;-64
2021/07/24 02:35:20;;;;;;;13.37;11.97;;;20.40;99.90;;;;;;6127504;23;20210;-64
2021/07/24 02:37:46;;;;;;;16.67;12.20;;;20.30;99.90;;;;;;6127675;23;20193;-64
2021/07/24 02:40:12;;;;;;;13.97;12.50;;;20.30;99.90;;;;;;6128178;23;20191;-69
2021/07/24 02:42:37;;;;;;;13.07;11.80;;;20.30;99.90;;;;;;6127416;23;20175;-69
2021/07/24 02:45:04;;;;;;;16.40;12.87;;;20.20;99.90;;;;;;6127935;23;20198;-69
2021/07/24 02:47:30;;;;;;;16.10;11.30;;;20.20;99.90;;;;;;6126014;23;20253;-64
2021/07/24 02:49:56;;;;;;;14.10;12.13;;;20.20;99.90;;;;;;6126162;23;20401;-69
2021/07/24 02:52:22;;;;;;;10.60;9.60;;;20.20;99.90;;;;;;6127447;23;20174;-69
2021/07/24 02:54:47;;;;;;;9.80;8.67;;;20.20;99.90;;;;;;6127653;23;20488;-69
2021/07/24 02:57:13;;;;;;;9.43;8.43;;;20.20;99.90;;;;;;6127300;23;20170;-64
2021/07/24 02:59:38;;;;;;;8.37;7.47;;;20.20;99.90;;;;;;6127725;23;20163;-64
2021/07/24 03:02:04;;;;;;;9.00;8.00;;;20.20;99.90;;;;;;6127248;23;20183;-69
2021/07/24 03:04:30;;;;;;;11.30;8.73;;;20.20;99.90;;;;;;6127767;23;20199;-68
2021/07/24 03:06:55;;;;;;;8.90;8.00;;;20.20;99.90;;;;;;6127300;23;20922;-69
2021/07/24 03:09:21;;;;;;;8.23;7.43;;;20.20;99.90;;;;;;6127813;23;20155;-64
2021/07/24 03:11:46;;;;;;;11.00;8.30;;;20.10;99.90;;;;;;6125677;23;20183;-64
2021/07/24 03:14:12;;;;;;;10.90;9.10;;;20.10;99.90;;;;;;6127579;23;20487;-64
2021/07/24 03:16:38;;;;;;;10.90;8.13;;;20.10;99.90;;;;;;6127276;23;20179;-68
2021/07/24 03:19:03;;;;;;;9.33;7.50;;;20.10;99.90;;;;;;6125475;23;20174;-69
2021/07/24 03:21:29;;;;;;;8.87;7.97;;;20.10;99.90;;;;;;6127136;23;20179;-64
2021/07/24 03:23:54;;;;;;;10.60;8.00;;;20.00;99.90;;;;;;6127197;23;20186;-69
2021/07/24 03:26:20;;;;;;;13.63;8.83;;;20.00;99.90;;;;;;6125526;23;20191;-64
2021/07/24 03:28:46;;;;;;;11.37;8.40;;;20.00;99.90;;;;;;6127481;23;20185;-64
2021/07/24 03:31:12;;;;;;;9.63;8.63;;;20.00;99.90;;;;;;6127128;23;20498;-64
2021/07/24 03:33:37;;;;;;;11.20;8.60;;;20.00;99.90;;;;;;6127329;23;20422;-69
2021/07/24 03:36:04;;;;;;;9.87;8.13;;;20.00;99.90;;;;;;6126813;23;20618;-68
2021/07/24 03:38:30;;;;;;;11.27;8.70;;;20.00;99.90;;;;;;6127179;23;20162;-64
2021/07/24 03:40:56;;;;;;;10.47;9.20;;;19.90;99.90;;;;;;6127064;23;20382;-65
2021/07/24 03:43:21;;;;;;;10.93;9.20;;;19.90;99.90;;;;;;6127037;23;20183;-69
2021/07/24 03:45:47;;;;;;;15.27;10.07;;;19.90;99.90;;;;;;6126899;23;20189;-69
2021/07/24 03:48:13;;;;;;;11.33;9.60;;;19.90;99.90;;;;;;6126867;23;20176;-69
2021/07/24 03:50:40;;;;;;;10.77;9.37;;;19.90;99.90;;;;;;6126997;23;20370;-69
2021/07/24 03:53:06;;;;;;;10.83;8.73;;;19.90;99.90;;;;;;6126837;23;20181;-69
2021/07/24 03:55:34;;;;;;;12.07;9.20;;;19.80;99.90;;;;;;6150062;23;20389;-68
2021/07/24 03:58:00;;;;;;;11.67;8.77;;;19.80;99.90;;;;;;6126715;23;20181;-69
2021/07/24 04:00:26;;;;;;;10.90;8.93;;;19.80;99.90;;;;;;6125596;23;20705;-69
2021/07/24 04:02:52;;;;;;;10.77;8.70;;;19.80;99.90;;;;;;6126913;23;20406;-69
2021/07/24 04:05:18;;;;;;;14.10;9.80;;;19.80;99.90;;;;;;6127584;23;20198;-64
2021/07/24 04:07:44;;;;;;;10.20;9.10;;;19.80;99.90;;;;;;6129422;23;20179;-69
2021/07/24 04:10:11;;;;;;;10.67;8.47;;;19.80;99.90;;;;;;6130750;23;20221;-68
2021/07/24 04:12:41;;;;;;;12.20;9.10;;;19.80;99.90;;;;;;6130152;23;20729;-69
2021/07/24 04:15:08;;;;;;;10.30;8.17;;;19.80;99.90;;;;;;6130870;23;20387;-64
2021/07/24 04:17:34;;;;;;;12.03;9.67;;;19.80;99.90;;;;;;6130309;23;20479;-69
2021/07/24 04:19:59;;;;;;;13.37;8.83;;;19.80;99.90;;;;;;6129404;23;20437;-64
2021/07/24 04:22:25;;;;;;;13.03;9.57;;;19.80;99.90;;;;;;6130000;23;20403;-69
2021/07/24 04:24:51;;;;;;;11.70;9.00;;;19.80;99.90;;;;;;6130550;23;20225;-64
2021/07/24 04:27:16;;;;;;;10.60;9.50;;;19.90;99.90;;;;;;6128493;23;20263;-69
2021/07/24 04:29:42;;;;;;;10.20;8.50;;;19.90;99.90;;;;;;6130613;23;20161;-69
2021/07/24 04:32:08;;;;;;;11.53;8.13;;;20.00;99.90;;;;;;6129936;23;20190;-66
2021/07/24 04:34:34;;;;;;;12.03;9.87;;;20.00;99.90;;;;;;6129805;23;20198;-64
2021/07/24 04:36:59;;;;;;;11.43;9.70;;;20.00;99.90;;;;;;6130000;23;20173;-69
2021/07/24 04:39:25;;;;;;;11.23;8.83;;;20.10;99.90;;;;;;6128729;23;20436;-70
2021/07/24 04:41:51;;;;;;;12.57;8.73;;;20.10;99.90;;;;;;6128367;23;20407;-69
2021/07/24 04:44:17;;;;;;;9.80;8.83;;;20.10;99.90;;;;;;6130263;23;20252;-64
2021/07/24 04:46:42;;;;;;;11.37;8.50;;;20.20;99.90;;;;;;6130166;23;20222;-65
2021/07/24 04:49:08;;;;;;;12.40;8.93;;;20.30;99.90;;;;;;6128587;23;20168;-69
2021/07/24 04:51:34;;;;;;;11.80;9.53;;;20.30;99.90;;;;;;6129948;23;20198;-69
2021/07/24 04:54:02;;;;;;;11.23;9.07;;;20.30;99.90;;;;;;6128342;23;20177;-64
2021/07/24 04:56:28;;;;;;;12.20;9.20;;;20.40;99.90;;;;;;6129965;23;20498;-69
2021/07/24 04:58:54;;;;;;;13.07;9.63;;;20.40;99.90;;;;;;6130177;23;20416;-69
2021/07/24 05:01:19;;;;;;;14.53;9.87;;;20.50;99.90;;;;;;6130008;23;20305;-64
2021/07/24 05:03:45;;;;;;;10.13;8.20;;;20.50;99.90;;;;;;6130048;23;20239;-64
2021/07/24 05:06:11;;;;;;;10.87;8.30;;;20.60;99.90;;;;;;6128394;23;20173;-70
2021/07/24 05:08:37;;;;;;;11.23;9.50;;;20.60;99.90;;;;;;6130087;23;20193;-64
2021/07/24 05:11:03;;;;;;;11.87;9.90;;;20.70;99.90;;;;;;6129881;23;20152;-65
2021/07/24 05:13:28;;;;;;;11.40;9.17;;;20.80;99.90;;;;;;6130032;23;20385;-70
2021/07/24 05:15:54;;;;;;;11.50;9.17;;;20.80;99.90;;;;;;6129964;23;20539;-69
2021/07/24 05:18:20;;;;;;;11.80;9.00;;;20.90;99.90;;;;;;6128876;23;20488;-69
2021/07/24 05:20:46;;;;;;;12.53;9.17;;;21.00;99.90;;;;;;6126890;23;20163;-68
2021/07/24 05:23:11;;;;;;;11.70;9.57;;;21.00;99.90;;;;;;6128236;23;20186;-64
2021/07/24 05:25:38;;;;;;;11.30;10.00;;;21.10;99.90;;;;;;6128656;23;20568;-64
2021/07/24 05:28:03;;;;;;;11.23;9.17;;;21.20;99.90;;;;;;6128163;23;20186;-64
2021/07/24 05:30:29;;;;;;;13.10;10.17;;;21.20;99.90;;;;;;6126753;23;20923;-66
2021/07/24 05:32:55;;;;;;;11.67;9.80;;;21.30;99.90;;;;;;6128149;23;20238;-64
2021/07/24 05:35:21;;;;;;;14.37;9.60;;;21.40;99.90;;;;;;6128431;23;20577;-69
2021/07/24 05:37:46;;;;;;;12.40;8.30;;;21.40;99.90;;;;;;6126636;23;20180;-69
2021/07/24 05:40:12;;;;;;;12.50;9.80;;;21.50;99.90;;;;;;6128727;23;20421;-69
2021/07/24 05:42:38;;;;;;;11.60;9.93;;;21.60;99.90;;;;;;6127757;23;20176;-69
2021/07/24 05:45:04;;;;;;;9.73;8.33;;;21.70;99.90;;;;;;6128576;23;20528;-64
2021/07/24 05:47:33;;;;;;;9.80;8.90;;;21.80;99.90;;;;;;6128130;23;20168;-70
2021/07/24 05:50:00;;;;;;;10.77;9.27;;;21.90;99.90;;;;;;6126852;23;20449;-69
2021/07/24 05:52:26;;;;;;;10.70;9.00;;;22.00;99.90;;;;;;6126468;23;20402;-69
2021/07/24 05:54:52;;;;;;;9.33;8.03;;;22.10;99.90;;;;;;6127842;23;20409;-64
2021/07/24 05:57:18;;;;;;;13.37;10.50;;;22.20;99.90;;;;;;6128017;23;20172;-64
2021/07/24 05:59:43;;;;;;;9.70;8.40;;;22.30;99.90;;;;;;6128597;23;20461;-69
2021/07/24 06:02:13;;;;;;;9.13;8.10;;;22.40;99.90;;;;;;6126302;23;20624;-69
2021/07/24 06:04:44;;;;;;;12.20;9.80;;;22.50;99.90;;;;;;6127787;23;20239;-64
2021/07/24 06:07:11;;;;;;;10.77;8.40;;;22.60;99.90;;;;;;6127888;23;20881;-64
2021/07/24 06:09:38;;;;;;;10.17;9.13;;;22.70;99.90;;;;;;6128381;23;20382;-69
2021/07/24 06:12:04;;;;;;;10.17;9.13;;;22.80;99.90;;;;;;6127850;23;20395;-69
2021/07/24 06:14:32;;;;;;;9.47;8.23;;;22.90;99.90;;;;;;6128228;23;20445;-65
2021/07/24 06:16:57;;;;;;;10.20;9.10;;;23.00;99.90;;;;;;6127761;23;20399;-68
2021/07/24 06:19:23;;;;;;;9.90;8.50;;;23.10;99.90;;;;;;6127700;23;20456;-69
2021/07/24 06:21:48;;;;;;;9.30;8.40;;;23.20;99.90;;;;;;6127730;23;20171;-69
2021/07/24 06:24:15;;;;;;;10.90;9.33;;;23.30;99.90;;;;;;6128057;23;20201;-69
2021/07/24 06:26:41;;;;;;;11.53;9.83;;;23.40;99.90;;;;;;6127599;23;20297;-64
2021/07/24 06:29:07;;;;;;;8.67;7.30;;;23.50;99.90;;;;;;6127962;23;20446;-64
2021/07/24 06:31:32;;;;;;;10.33;8.90;;;23.60;99.90;;;;;;6127199;23;20388;-70
2021/07/24 06:34:00;;;;;;;8.77;7.83;;;23.70;99.90;;;;;;6127553;23;20833;-64
2021/07/24 06:36:26;;;;;;;11.00;8.60;;;23.80;99.90;;;;;;6127682;23;20640;-64
2021/07/24 06:38:52;;;;;;;9.90;8.53;;;23.90;99.90;;;;;;6127794;23;20877;-69
2021/07/24 06:41:17;;;;;;;9.00;8.10;;;24.00;99.90;;;;;;6127676;23;20397;-69
2021/07/24 06:43:44;;;;;;;9.83;8.83;;;24.10;99.90;;;;;;6150489;23;20183;-70
2021/07/24 06:46:14;;;;;;;10.50;8.60;;;24.20;99.90;;;;;;6127396;23;20377;-70
2021/07/24 06:48:39;;;;;;;11.30;8.70;;;24.30;99.90;;;;;;6126020;23;20494;-68
2021/07/24 06:51:07;;;;;;;8.70;7.20;;;24.40;99.90;;;;;;6127341;23;20376;-69
2021/07/24 06:53:34;;;;;;;10.00;8.60;;;24.50;99.90;;;;;;6127555;23;20305;-65
2021/07/24 06:55:59;;;;;;;9.03;8.00;;;24.60;99.90;;;;;;6127433;23;20369;-64
2021/07/24 06:58:25;;;;;;;10.13;8.20;;;24.70;99.90;;;;;;6150460;23;20867;-68
2021/07/24 07:00:50;;;;;;;11.20;7.70;;;24.80;99.90;;;;;;6127364;23;20626;-69
2021/07/24 07:03:16;;;;;;;9.10;7.70;;;24.90;99.90;;;;;;6127252;23;20242;-70
2021/07/24 07:05:41;;;;;;;8.43;7.63;;;25.00;99.90;;;;;;6127302;23;20201;-64
2021/07/24 07:08:07;;;;;;;9.23;8.33;;;25.10;99.90;;;;;;6127136;23;20614;-65
2021/07/24 07:10:33;;;;;;;9.50;8.57;;;25.20;99.90;;;;;;6127406;23;20579;-69
2021/07/24 07:12:58;;;;;;;8.10;7.03;;;25.30;99.90;;;;;;6127455;23;20167;-64
2021/07/24 07:15:26;;;;;;;8.00;7.20;;;25.40;99.90;;;;;;6127842;23;20171;-64
2021/07/24 07:17:51;;;;;;;8.33;7.27;;;25.40;99.90;;;;;;6127155;23;20642;-65
2021/07/24 07:20:18;;;;;;;10.73;7.73;;;25.50;99.90;;;;;;6127801;23;20389;-69
2021/07/24 07:22:43;;;;;;;7.53;6.80;;;25.60;99.90;;;;;;6125655;23;20476;-66
2021/07/24 07:25:10;;;;;;;7.37;6.63;;;25.60;99.90;;;;;;6125864;23;20445;-65
2021/07/24 07:27:40;;;;;;;8.63;7.70;;;25.70;99.90;;;;;;6150238;23;20178;-69
2021/07/24 07:30:06;;;;;;;7.63;6.83;;;25.80;99.90;;;;;;6125942;23;20406;-64
2021/07/24 07:32:32;;;;;;;8.57;7.67;;;25.90;99.90;;;;;;6127342;23;20872;-69
2021/07/24 07:34:57;;;;;;;7.60;6.60;;;25.90;99.90;;;;;;6127060;23;20462;-65
2021/07/24 07:37:23;;;;;;;9.07;6.97;;;26.00;99.90;;;;;;6126994;23;20175;-69
2021/07/24 07:39:49;;;;;;;7.93;7.20;;;26.10;99.90;;;;;;6127709;23;20159;-64
2021/07/24 07:42:15;;;;;;;9.23;7.10;;;26.20;99.90;;;;;;6125360;23;20499;-70
2021/07/24 07:44:40;;;;;;;7.50;6.80;;;26.20;99.90;;;;;;6125628;23;20191;-65
2021/07/24 07:47:06;;;;;;;7.17;6.50;;;26.30;99.90;;;;;;6126986;23;20406;-64
2021/07/24 07:49:31;;;;;;;7.17;6.50;;;26.40;99.90;;;;;;6127590;23;20591;-70
2021/07/24 07:51:57;;;;;;;7.43;6.73;;;26.50;99.90;;;;;;6126991;23;20618;-65
2021/07/24 07:54:23;;;;;;;7.17;6.47;;;26.60;99.90;;;;;;6127432;23;20168;-70
2021/07/24 07:56:48;;;;;;;6.00;5.23;;;26.60;99.90;;;;;;6124978;23;20207;-69
2021/07/24 07:59:14;;;;;;;7.00;6.27;;;26.70;99.90;;;;;;6127233;23;20219;-69
2021/07/24 08:01:39;;;;;;;7.50;6.73;;;26.70;99.90;;;;;;6126942;23;20175;-65
2021/07/24 08:04:05;;;;;;;6.63;5.93;;;26.80;99.90;;;;;;6127163;23;20194;-70
2021/07/24 08:06:31;;;;;;;7.27;6.63;;;26.90;99.90;;;;;;6126888;23;20183;-65
2021/07/24 08:08:56;;;;;;;6.70;6.00;;;26.90;99.90;;;;;;6127066;23;20152;-70
2021/07/24 08:11:23;;;;;;;7.50;6.80;;;27.00;99.90;;;;;;6126829;23;20178;-70
2021/07/24 08:13:48;;;;;;;10.23;7.73;;;27.10;99.90;;;;;;6126977;23;20182;-70
2021/07/24 08:16:16;;;;;;;7.13;6.50;;;27.10;99.90;;;;;;6126789;23;20374;-70
2021/07/24 08:18:42;;;;;;;6.70;6.10;;;27.20;99.90;;;;;;6127138;23;20187;-65
2021/07/24 08:21:08;;;;;;;6.50;5.90;;;27.30;99.90;;;;;;6126784;23;20387;-70
2021/07/24 08:23:34;;;;;;;7.97;6.70;;;27.40;99.90;;;;;;6125310;23;20382;-70
2021/07/24 08:25:59;;;;;;;8.00;7.20;;;27.40;99.90;;;;;;6125236;23;20614;-70
2021/07/24 08:28:28;;;;;;;7.33;6.63;;;27.50;99.90;;;;;;6126760;23;20156;-65
2021/07/24 08:30:55;;;;;;;10.83;7.17;;;27.50;99.90;;;;;;6125709;23;20156;-65
2021/07/24 08:33:20;;;;;;;7.03;6.33;;;27.60;99.90;;;;;;6126853;23;20419;-65
2021/07/24 08:35:47;;;;;;;8.47;6.87;;;27.70;99.90;;;;;;6126694;23;20891;-65
2021/07/24 08:38:12;;;;;;;7.67;6.97;;;27.70;99.90;;;;;;6126693;23;20168;-65
2021/07/24 08:40:38;;;;;;;10.80;7.37;;;27.80;99.90;;;;;;6126851;23;20373;-65
2021/07/24 08:43:05;;;;;;;7.80;7.00;;;27.90;99.90;;;;;;6126323;23;20247;-65
2021/07/24 08:45:31;;;;;;;10.07;9.03;;;27.90;99.90;;;;;;6126485;23;20431;-65
2021/07/24 08:47:58;;;;;;;8.40;7.57;;;28.00;99.90;;;;;;6126540;23;20736;-65
2021/07/24 08:50:24;;;;;;;9.00;8.10;;;28.10;99.90;;;;;;6126632;23;20410;-64
2021/07/24 08:52:54;;;;;;;8.30;7.50;;;28.10;99.90;;;;;;6125964;23;20398;-64
2021/07/24 08:55:23;;;;;;;9.30;8.13;;;28.20;99.90;;;;;;6127718;23;20165;-64
2021/07/24 08:57:52;;;;;;;10.23;9.20;;;28.30;99.90;;;;;;6125823;23;20916;-65
2021/07/24 09:00:19;;;;;;;9.47;8.43;;;28.30;99.90;;;;;;6124567;23;20453;-71
2021/07/24 09:02:47;;;;;;;8.60;7.80;;;28.40;99.90;;;;;;6124287;23;20431;-70
2021/07/24 09:05:15;;;;;;;9.47;8.53;;;28.50;99.50;;;;;;6123297;23;20920;-65
2021/07/24 09:07:48;;;;;;;9.67;8.40;;;28.60;99.90;;;;;;6123462;23;20707;-65
2021/07/24 09:10:16;;;;;;;9.37;8.47;;;28.70;99.90;;;;;;6124783;23;20863;-70
2021/07/24 09:12:46;;;;;;;11.07;9.90;;;28.70;99.90;;;;;;6125777;23;20434;-65
2021/07/24 09:15:15;;;;;;;8.63;7.87;;;28.80;99.80;;;;;;6125774;23;20410;-70
2021/07/24 09:17:41;;;;;;;9.20;8.03;;;28.90;99.30;;;;;;6126128;23;20410;-71
2021/07/24 09:20:08;;;;;;;9.47;8.40;;;29.00;98.50;;;;;;6126329;23;20428;-69
2021/07/24 09:22:37;;;;;;;9.93;8.90;;;29.10;98.10;;;;;;6128462;23;20921;-65
2021/07/24 09:25:13;;;;;;;9.40;8.33;;;29.10;96.50;;;;;;6128635;23;20507;-70
2021/07/24 09:27:50;;;;;;;9.73;8.80;;;29.10;96.90;;;;;;6126755;23;20397;-70
2021/07/24 09:30:25;;;;;;;9.33;8.43;;;29.20;96.60;;;;;;6128964;23;20393;-70
2021/07/24 09:33:11;;;;;;;10.90;9.00;;;29.30;97.20;;;;;;6126462;23;20502;-70
2021/07/24 09:35:37;;;;;;;10.20;8.50;;;29.30;97.20;;;;;;6126540;23;20445;-65
2021/07/24 09:38:05;;;;;;;10.20;7.80;;;29.40;97.20;;;;;;6128043;23;20932;-70
2021/07/24 09:40:33;;;;;;;9.60;8.60;;;29.40;96.10;;;;;;6126518;23;20790;-65
2021/07/24 09:42:59;;;;;;;8.50;7.70;;;29.40;96.10;;;;;;6127960;23;20398;-65
2021/07/24 09:45:25;;;;;;;9.80;8.80;;;29.50;95.50;;;;;;6126425;23;20450;-65
2021/07/24 09:47:52;;;;;;;8.03;7.33;;;29.40;95.80;;;;;;6127941;23;20173;-66
2021/07/24 09:50:19;;;;;;;8.90;7.50;;;29.50;95.80;;;;;;6126859;23;20595;-70
2021/07/24 09:52:45;;;;;;;8.00;7.07;;;29.50;95.70;;;;;;6126342;23;20423;-65
2021/07/24 09:55:23;;;;;;;7.93;7.27;;;29.50;95.20;;;;;;6128573;23;20393;-65
2021/07/24 09:57:49;;;;;;;7.93;7.13;;;29.60;94.80;;;;;;6128024;23;20792;-70
2021/07/24 10:00:27;;;;;;;14.60;12.30;;;29.50;95.20;;;;;;6128468;23;20395;-67
2021/07/24 10:02:56;;;;;;;12.80;10.03;;;29.60;95.40;;;;;;6150682;23;20452;-70
2021/07/24 10:05:29;;;;;;;10.13;8.53;;;29.60;96.60;;;;;;6128300;23;20439;-70
2021/07/24 10:07:55;;;;;;;9.13;8.23;;;29.60;94.90;;;;;;6150767;23;20401;-65
2021/07/24 10:10:21;;;;;;;8.50;7.67;;;29.70;94.10;;;;;;6128531;23;20694;-65
2021/07/24 10:12:46;;;;;;;9.27;8.40;;;29.60;94.20;;;;;;6127855;23;20484;-65
2021/07/24 10:15:13;;;;;;;8.67;7.70;;;29.70;94.50;;;;;;6128339;23;20214;-71
2021/07/24 10:17:40;;;;;;;9.43;8.63;;;29.60;94.50;;;;;;6126072;23;20182;-65
2021/07/24 10:20:06;;;;;;;9.27;8.37;;;29.70;94.70;;;;;;6128058;23;20516;-65
2021/07/24 10:22:32;;;;;;;8.33;7.60;;;29.70;94.30;;;;;;6127735;23;20476;-65
2021/07/24 10:24:59;;;;;;;9.53;8.40;;;29.70;94.80;;;;;;6128067;23;20476;-65
2021/07/24 10:27:32;;;;;;;9.30;8.40;;;29.70;94.00;;;;;;6127707;23;20219;-70
2021/07/24 10:30:04;;;;;;;8.83;8.03;;;29.70;94.30;;;;;;6128119;23;20385;-65
2021/07/24 10:32:42;;;;;;;9.60;8.63;;;29.70;94.30;;;;;;6127462;23;20405;-71
2021/07/24 10:35:09;;;;;;;7.03;6.40;;;29.70;94.00;;;;;;6125714;23;20451;-69
2021/07/24 10:37:42;;;;;;;8.60;7.80;;;29.70;93.10;;;;;;6127431;23;20442;-70
2021/07/24 10:40:31;;;;;;;8.40;7.70;;;29.80;93.10;;;;;;6128113;23;20837;-70
2021/07/24 10:42:57;;;;;;;8.10;7.30;;;29.70;94.30;;;;;;6116329;23;20445;-70
2021/07/24 10:45:31;;;;;;;8.83;7.67;;;29.70;93.40;;;;;;6128033;23;20434;-70
2021/07/24 10:48:16;;;;;;;8.50;7.50;;;29.70;93.30;;;;;;6125861;23;20187;-70
2021/07/24 10:50:53;;;;;;;9.10;8.20;;;29.70;93.60;;;;;;6127375;23;20382;-69
2021/07/24 10:53:21;;;;;;;9.03;7.77;;;29.80;93.60;;;;;;6125817;23;20795;-65
2021/07/24 10:55:48;;;;;;;8.90;8.00;;;29.80;92.90;;;;;;6127391;23;20385;-65
2021/07/24 10:58:16;;;;;;;9.50;8.60;;;29.80;93.40;;;;;;6150336;23;20400;-65
2021/07/24 11:00:54;;;;;;;8.90;8.00;;;29.90;94.60;;;;;;6127263;23;20780;-65
2021/07/24 11:03:34;;;;;;;9.77;8.77;;;29.80;93.30;;;;;;6127327;23;20404;-70
2021/07/24 11:06:19;;;;;;;9.17;8.03;;;29.90;93.60;;;;;;6127162;23;20891;-65
2021/07/24 11:09:03;;;;;;;8.63;7.80;;;29.90;93.00;;;;;;6127506;23;20457;-65
2021/07/24 11:11:39;;;;;;;8.57;7.83;;;29.90;93.50;;;;;;6125510;23;20414;-71
2021/07/24 11:14:04;;;;;;;7.97;7.20;;;30.00;92.80;;;;;;6127145;23;20395;-65
2021/07/24 11:17:07;;;;;;;9.40;7.30;;;30.00;92.60;;;;;;6124936;23;20749;-70
2021/07/24 11:19:38;;;;;;;8.40;7.60;;;30.00;91.60;;;;;;6125874;23;20175;-70
2021/07/24 11:22:10;;;;;;;8.30;7.20;;;29.90;91.90;;;;;;6127146;23;20906;-65
2021/07/24 11:24:36;;;;;;;8.00;7.30;;;30.00;91.90;;;;;;6127455;23;20431;-65
2021/07/24 11:27:02;;;;;;;8.10;7.30;;;30.00;92.20;;;;;;6127000;23;20474;-65
2021/07/24 11:29:27;;;;;;;7.70;7.00;;;30.00;92.40;;;;;;6127639;23;20424;-65
2021/07/24 11:31:54;;;;;;;8.70;7.80;;;30.10;92.20;;;;;;6125356;23;20180;-65
2021/07/24 11:34:21;;;;;;;8.40;7.60;;;30.10;91.80;;;;;;6126941;23;20573;-64
2021/07/24 11:36:49;;;;;;;8.00;7.20;;;30.10;92.00;;;;;;6126926;23;20405;-70
2021/07/24 11:39:15;;;;;;;8.00;7.20;;;30.10;92.50;;;;;;6125554;23;20450;-70
2021/07/24 11:41:41;;;;;;;9.30;8.40;;;30.20;92.10;;;;;;6125141;23;20896;-65
2021/07/24 11:44:06;;;;;;;9.13;8.23;;;30.10;91.90;;;;;;6127009;23;20528;-65
2021/07/24 11:46:32;;;;;;;9.50;8.60;;;30.10;91.80;;;;;;6125400;23;20438;-65
2021/07/24 11:49:04;;;;;;;8.23;7.47;;;30.10;93.70;;;;;;6127237;23;20161;-70
2021/07/24 11:51:30;;;;;;;9.07;8.07;;;30.10;92.30;;;;;;6127042;23;20232;-65
2021/07/24 11:53:56;;;;;;;8.57;7.67;;;30.10;91.50;;;;;;6127142;23;20394;-65
2021/07/24 11:56:24;;;;;;;9.33;8.43;;;30.20;91.40;;;;;;6127047;23;20625;-70
2021/07/24 11:58:57;;;;;;;8.73;7.83;;;30.10;91.10;;;;;;6125615;23;20732;-68
2021/07/24 12:01:24;;;;;;;7.70;7.00;;;30.10;91.80;;;;;;6127117;23;20417;-70
2021/07/24 12:04:07;;;;;;;7.70;7.00;;;30.10;90.70;;;;;;6127222;23;20421;-69
2021/07/24 12:06:35;;;;;;;10.40;7.67;;;30.10;91.80;;;;;;6126990;23;20801;-70
2021/07/24 12:09:01;;;;;;;8.33;7.40;;;30.10;90.40;;;;;;6125331;23;20407;-70
2021/07/24 12:11:28;;;;;;;10.93;9.20;;;30.10;91.60;;;;;;6126884;23;20403;-70
2021/07/24 12:14:05;;;;;;;10.00;9.00;;;30.10;91.80;;;;;;6127075;23;20393;-70
2021/07/24 12:16:40;;;;;;;9.77;8.80;;;30.20;91.80;;;;;;6127022;23;20407;-70
2021/07/24 12:19:13;;;;;;;10.00;8.90;;;30.20;92.10;;;;;;6127161;23;20447;-64
2021/07/24 12:21:39;;;;;;;10.70;8.10;;;30.20;92.00;;;;;;6125226;23;20414;-70
2021/07/24 12:24:07;;;;;;;9.10;8.20;;;30.20;91.60;;;;;;6127071;23;20469;-64
2021/07/24 12:26:34;;;;;;;9.07;8.17;;;30.30;92.30;;;;;;6126876;23;20477;-70
2021/07/24 12:29:10;;;;;;;9.60;8.67;;;30.30;91.70;;;;;;6128661;23;20400;-65
2021/07/24 12:31:44;;;;;;;11.90;10.77;;;30.30;92.10;;;;;;6129038;23;20395;-65
2021/07/24 12:34:16;;;;;;;11.60;9.20;;;30.30;91.40;;;;;;6128837;23;20445;-70
2021/07/24 12:36:51;;;;;;;9.37;8.37;;;30.30;91.30;;;;;;6128829;23;20400;-70
2021/07/24 12:39:18;;;;;;;8.70;7.80;;;30.40;91.10;;;;;;6127076;23;20399;-65
2021/07/24 12:41:56;;;;;;;9.63;8.73;;;30.40;91.30;;;;;;6128701;23;20400;-65